This is the latest recevied weather packets stored in our database for station/object NK2J. If no packets are shown the sender has not sent any weather packets the latest 1 day(s).
| Time | Temp. | Humidity | Pressure | Rain* | Wind** | Luminosity | Snow |
|---|---|---|---|---|---|---|---|
| 1778017600 | 24.44° C | 30% | 1011.9 hPa | 0 mm | 0 m/s | 646 W/m² | - |
| 1778017297 | 25° C | 31% | 1011.8 hPa | 0 mm | 0.89 m/s, 42° | 152 W/m² | - |
| 1778016995 | 25° C | 31% | 1011.8 hPa | 0 mm | 0.89 m/s, 35° | 727 W/m² | - |
| 1778016691 | 24.44° C | 32% | 1011.9 hPa | 0 mm | 0.45 m/s, 20° | 413 W/m² | - |
| 1778016387 | 23.89° C | 32% | 1011.8 hPa | 0 mm | 1.34 m/s, 129° | 201 W/m² | - |
| 1778016085 | 23.33° C | 33% | 1011.9 hPa | 0 mm | 0.45 m/s, 55° | 156 W/m² | - |
| 1778015782 | 23.89° C | 33% | 1012.3 hPa | 0 mm | 0.45 m/s, 48° | 743 W/m² | - |
| 1778015479 | 25° C | 32% | 1012.2 hPa | 0 mm | 1.79 m/s, 60° | 588 W/m² | - |
| 1778015175 | 24.44° C | 32% | 1012.3 hPa | 0 mm | 2.24 m/s, 119° | 692 W/m² | - |
| 1778014872 | 23.89° C | 33% | 1012.5 hPa | 0 mm | 0.45 m/s, 60° | 814 W/m² | - |
| 1778014570 | 23.33° C | 34% | 1012.4 hPa | 0 mm | 0.89 m/s, 29° | 216 W/m² | - |
| 1778014268 | 23.33° C | 36% | 1012.5 hPa | 0 mm | 0.89 m/s, 100° | 207 W/m² | - |
| 1778013964 | 23.33° C | 37% | 1012.6 hPa | 0 mm | 0.45 m/s, 26° | 887 W/m² | - |
| 1778013662 | 23.33° C | 37% | 1012.5 hPa | 0 mm | 1.34 m/s, 36° | 220 W/m² | - |
| 1778013358 | 23.33° C | 37% | 1012.6 hPa | 0 mm | 0.89 m/s, 20° | 257 W/m² | - |
| 1778013056 | 22.78° C | 38% | 1012.7 hPa | 0 mm | 1.79 m/s, 93° | 223 W/m² | - |
| 1778012751 | 22.78° C | 38% | 1012.6 hPa | 0 mm | 0.45 m/s, 60° | 191 W/m² | - |
| 1778012447 | 23.33° C | 38% | 1012.6 hPa | 0 mm | 0.45 m/s, 74° | 246 W/m² | - |
| 1778012144 | 23.89° C | 38% | 1012.6 hPa | 0 mm | 0.89 m/s, 9° | 891 W/m² | - |
| 1778011842 | 23.33° C | 40% | 1012.5 hPa | 0 mm | 1.34 m/s, 59° | 901 W/m² | - |
| 1778011540 | 23.33° C | 40% | 1012.9 hPa | 0 mm | 1.79 m/s, 70° | 879 W/m² | - |
| 1778011236 | 22.78° C | 40% | 1012.7 hPa | 0 mm | 0.89 m/s, 30° | 864 W/m² | - |
| 1778010932 | 23.89° C | 39% | 1012.6 hPa | 0 mm | 1.34 m/s, 91° | 833 W/m² | - |
| 1778010630 | 23.33° C | 38% | 1012.7 hPa | 0 mm | 0 m/s | 791 W/m² | - |
| 1778010327 | 23.33° C | 39% | 1013 hPa | 0 mm | 0.89 m/s, 62° | 708 W/m² | - |
* Rain latest hour (hover to see other rain measurements)
** Current wind speed in m/s (hover to see current wind gust speed)